sensor_id;sensor_type;location;lat;lon;timestamp;P1;durP1;ratioP1;P2;durP2;ratioP2
20034;SDS011;10178;48.034;9.800;2024-01-15T00:01:54;11.03;;;5.97;;
20034;SDS011;10178;48.034;9.800;2024-01-15T00:04:19;11.90;;;6.57;;
20034;SDS011;10178;48.034;9.800;2024-01-15T00:06:45;12.23;;;7.00;;
20034;SDS011;10178;48.034;9.800;2024-01-15T00:09:11;12.07;;;6.43;;
20034;SDS011;10178;48.034;9.800;2024-01-15T00:11:36;12.83;;;6.30;;
20034;SDS011;10178;48.034;9.800;2024-01-15T00:14:02;12.50;;;6.50;;
20034;SDS011;10178;48.034;9.800;2024-01-15T00:16:28;12.10;;;6.07;;
20034;SDS011;10178;48.034;9.800;2024-01-15T00:18:54;11.30;;;5.93;;
20034;SDS011;10178;48.034;9.800;2024-01-15T00:21:19;12.37;;;6.70;;
20034;SDS011;10178;48.034;9.800;2024-01-15T00:23:45;10.17;;;6.00;;
20034;SDS011;10178;48.034;9.800;2024-01-15T00:26:11;14.00;;;7.37;;
20034;SDS011;10178;48.034;9.800;2024-01-15T00:28:37;13.90;;;6.97;;
20034;SDS011;10178;48.034;9.800;2024-01-15T00:31:03;13.40;;;7.43;;
20034;SDS011;10178;48.034;9.800;2024-01-15T00:33:30;14.80;;;7.30;;
20034;SDS011;10178;48.034;9.800;2024-01-15T00:35:56;14.43;;;7.57;;
20034;SDS011;10178;48.034;9.800;2024-01-15T00:38:21;14.07;;;7.87;;
20034;SDS011;10178;48.034;9.800;2024-01-15T00:40:47;13.47;;;7.47;;
20034;SDS011;10178;48.034;9.800;2024-01-15T00:43:13;15.97;;;8.50;;
20034;SDS011;10178;48.034;9.800;2024-01-15T00:45:40;13.13;;;7.03;;
20034;SDS011;10178;48.034;9.800;2024-01-15T00:48:06;14.83;;;7.47;;
20034;SDS011;10178;48.034;9.800;2024-01-15T00:50:32;15.50;;;8.70;;
20034;SDS011;10178;48.034;9.800;2024-01-15T00:52:58;16.03;;;7.50;;
20034;SDS011;10178;48.034;9.800;2024-01-15T00:55:23;15.17;;;7.97;;
20034;SDS011;10178;48.034;9.800;2024-01-15T00:57:49;18.60;;;8.23;;
20034;SDS011;10178;48.034;9.800;2024-01-15T01:00:15;13.90;;;7.60;;
20034;SDS011;10178;48.034;9.800;2024-01-15T01:02:41;14.97;;;7.40;;
20034;SDS011;10178;48.034;9.800;2024-01-15T01:05:06;16.33;;;8.63;;
20034;SDS011;10178;48.034;9.800;2024-01-15T01:07:32;16.17;;;8.17;;
20034;SDS011;10178;48.034;9.800;2024-01-15T01:09:58;17.17;;;8.53;;
20034;SDS011;10178;48.034;9.800;2024-01-15T01:12:23;15.37;;;8.33;;
20034;SDS011;10178;48.034;9.800;2024-01-15T01:14:49;18.10;;;8.70;;
20034;SDS011;10178;48.034;9.800;2024-01-15T01:17:14;17.83;;;8.87;;
20034;SDS011;10178;48.034;9.800;2024-01-15T01:19:40;17.13;;;8.57;;
20034;SDS011;10178;48.034;9.800;2024-01-15T01:22:06;19.40;;;8.70;;
20034;SDS011;10178;48.034;9.800;2024-01-15T01:24:31;19.17;;;9.00;;
20034;SDS011;10178;48.034;9.800;2024-01-15T01:26:57;18.60;;;9.10;;
20034;SDS011;10178;48.034;9.800;2024-01-15T01:29:22;18.60;;;9.20;;
20034;SDS011;10178;48.034;9.800;2024-01-15T01:31:48;17.87;;;9.87;;
20034;SDS011;10178;48.034;9.800;2024-01-15T01:34:14;18.37;;;9.10;;
20034;SDS011;10178;48.034;9.800;2024-01-15T01:36:41;19.87;;;9.10;;
20034;SDS011;10178;48.034;9.800;2024-01-15T01:39:07;19.80;;;9.30;;
20034;SDS011;10178;48.034;9.800;2024-01-15T01:41:33;23.10;;;11.20;;
20034;SDS011;10178;48.034;9.800;2024-01-15T01:43:58;17.73;;;9.10;;
20034;SDS011;10178;48.034;9.800;2024-01-15T01:46:24;18.20;;;9.60;;
20034;SDS011;10178;48.034;9.800;2024-01-15T01:48:52;22.17;;;10.20;;
20034;SDS011;10178;48.034;9.800;2024-01-15T01:51:18;20.20;;;10.17;;
20034;SDS011;10178;48.034;9.800;2024-01-15T01:53:46;21.47;;;10.53;;
20034;SDS011;10178;48.034;9.800;2024-01-15T01:56:12;25.73;;;11.50;;
20034;SDS011;10178;48.034;9.800;2024-01-15T01:58:39;21.50;;;10.23;;
20034;SDS011;10178;48.034;9.800;2024-01-15T02:01:05;19.73;;;10.27;;
20034;SDS011;10178;48.034;9.800;2024-01-15T02:03:32;21.03;;;9.87;;
20034;SDS011;10178;48.034;9.800;2024-01-15T02:05:58;17.33;;;9.67;;
20034;SDS011;10178;48.034;9.800;2024-01-15T02:08:25;22.73;;;10.53;;
20034;SDS011;10178;48.034;9.800;2024-01-15T02:10:51;21.63;;;10.73;;
20034;SDS011;10178;48.034;9.800;2024-01-15T02:13:17;21.87;;;11.33;;
20034;SDS011;10178;48.034;9.800;2024-01-15T02:15:43;26.07;;;11.10;;
20034;SDS011;10178;48.034;9.800;2024-01-15T02:18:09;23.30;;;11.17;;
20034;SDS011;10178;48.034;9.800;2024-01-15T02:20:35;23.40;;;11.37;;
20034;SDS011;10178;48.034;9.800;2024-01-15T02:23:07;24.77;;;11.43;;
20034;SDS011;10178;48.034;9.800;2024-01-15T02:25:41;20.60;;;10.17;;
20034;SDS011;10178;48.034;9.800;2024-01-15T02:28:09;21.33;;;9.77;;
20034;SDS011;10178;48.034;9.800;2024-01-15T02:30:37;28.63;;;11.90;;
20034;SDS011;10178;48.034;9.800;2024-01-15T02:33:04;25.77;;;11.80;;
20034;SDS011;10178;48.034;9.800;2024-01-15T02:35:31;21.97;;;11.23;;
20034;SDS011;10178;48.034;9.800;2024-01-15T02:37:56;26.37;;;12.00;;
20034;SDS011;10178;48.034;9.800;2024-01-15T02:40:22;24.00;;;11.73;;
20034;SDS011;10178;48.034;9.800;2024-01-15T02:42:47;23.67;;;11.03;;
20034;SDS011;10178;48.034;9.800;2024-01-15T02:45:13;24.30;;;11.70;;
20034;SDS011;10178;48.034;9.800;2024-01-15T02:47:39;25.53;;;11.83;;
20034;SDS011;10178;48.034;9.800;2024-01-15T02:50:04;25.70;;;11.33;;
20034;SDS011;10178;48.034;9.800;2024-01-15T02:52:30;26.60;;;11.70;;
20034;SDS011;10178;48.034;9.800;2024-01-15T02:54:56;21.17;;;10.10;;
20034;SDS011;10178;48.034;9.800;2024-01-15T02:57:22;26.13;;;11.73;;
20034;SDS011;10178;48.034;9.800;2024-01-15T02:59:47;25.83;;;11.57;;
20034;SDS011;10178;48.034;9.800;2024-01-15T03:02:13;19.67;;;10.83;;
20034;SDS011;10178;48.034;9.800;2024-01-15T03:04:42;22.60;;;10.30;;
20034;SDS011;10178;48.034;9.800;2024-01-15T03:07:08;24.67;;;11.17;;
20034;SDS011;10178;48.034;9.800;2024-01-15T03:09:34;23.67;;;11.20;;
20034;SDS011;10178;48.034;9.800;2024-01-15T03:12:00;22.93;;;10.27;;
20034;SDS011;10178;48.034;9.800;2024-01-15T03:14:25;20.27;;;9.73;;
20034;SDS011;10178;48.034;9.800;2024-01-15T03:16:51;20.10;;;9.60;;
20034;SDS011;10178;48.034;9.800;2024-01-15T03:19:17;19.93;;;9.40;;
20034;SDS011;10178;48.034;9.800;2024-01-15T03:21:43;18.60;;;9.40;;
20034;SDS011;10178;48.034;9.800;2024-01-15T03:24:08;19.60;;;9.70;;
20034;SDS011;10178;48.034;9.800;2024-01-15T03:26:34;19.60;;;9.00;;
20034;SDS011;10178;48.034;9.800;2024-01-15T03:29:00;18.67;;;8.80;;
20034;SDS011;10178;48.034;9.800;2024-01-15T03:31:25;17.33;;;8.70;;
20034;SDS011;10178;48.034;9.800;2024-01-15T03:33:51;16.30;;;9.00;;
20034;SDS011;10178;48.034;9.800;2024-01-15T03:36:17;18.47;;;8.73;;
20034;SDS011;10178;48.034;9.800;2024-01-15T03:38:42;19.83;;;10.03;;
20034;SDS011;10178;48.034;9.800;2024-01-15T03:41:08;17.57;;;8.20;;
20034;SDS011;10178;48.034;9.800;2024-01-15T03:43:33;17.47;;;9.10;;
20034;SDS011;10178;48.034;9.800;2024-01-15T03:45:59;15.80;;;8.30;;
20034;SDS011;10178;48.034;9.800;2024-01-15T03:48:25;17.90;;;9.20;;
20034;SDS011;10178;48.034;9.800;2024-01-15T03:50:50;15.70;;;7.70;;
20034;SDS011;10178;48.034;9.800;2024-01-15T03:53:16;18.20;;;8.07;;
20034;SDS011;10178;48.034;9.800;2024-01-15T03:55:42;15.23;;;8.07;;
20034;SDS011;10178;48.034;9.800;2024-01-15T03:58:07;17.27;;;7.53;;
20034;SDS011;10178;48.034;9.800;2024-01-15T04:00:33;16.27;;;7.90;;
20034;SDS011;10178;48.034;9.800;2024-01-15T04:02:59;19.17;;;8.27;;
20034;SDS011;10178;48.034;9.800;2024-01-15T04:05:25;17.73;;;8.20;;
20034;SDS011;10178;48.034;9.800;2024-01-15T04:07:51;14.77;;;8.03;;
20034;SDS011;10178;48.034;9.800;2024-01-15T04:10:16;15.73;;;7.67;;
20034;SDS011;10178;48.034;9.800;2024-01-15T04:12:42;12.37;;;7.20;;
20034;SDS011;10178;48.034;9.800;2024-01-15T04:15:08;15.10;;;7.80;;
20034;SDS011;10178;48.034;9.800;2024-01-15T04:17:33;16.33;;;8.00;;
20034;SDS011;10178;48.034;9.800;2024-01-15T04:19:59;15.33;;;7.63;;
20034;SDS011;10178;48.034;9.800;2024-01-15T04:22:25;14.40;;;7.27;;
20034;SDS011;10178;48.034;9.800;2024-01-15T04:24:52;13.30;;;7.00;;
20034;SDS011;10178;48.034;9.800;2024-01-15T04:27:17;13.40;;;6.57;;
20034;SDS011;10178;48.034;9.800;2024-01-15T04:29:43;13.60;;;6.97;;
20034;SDS011;10178;48.034;9.800;2024-01-15T04:32:09;15.47;;;7.67;;
20034;SDS011;10178;48.034;9.800;2024-01-15T04:34:35;14.07;;;7.27;;
20034;SDS011;10178;48.034;9.800;2024-01-15T04:37:01;14.77;;;7.20;;
20034;SDS011;10178;48.034;9.800;2024-01-15T04:39:26;16.03;;;8.10;;
20034;SDS011;10178;48.034;9.800;2024-01-15T04:41:52;15.13;;;8.03;;
20034;SDS011;10178;48.034;9.800;2024-01-15T04:44:18;17.47;;;7.93;;
20034;SDS011;10178;48.034;9.800;2024-01-15T04:46:44;15.07;;;8.20;;
20034;SDS011;10178;48.034;9.800;2024-01-15T04:49:10;16.87;;;7.87;;
20034;SDS011;10178;48.034;9.800;2024-01-15T04:51:36;14.67;;;7.73;;
20034;SDS011;10178;48.034;9.800;2024-01-15T04:54:01;31.00;;;17.30;;
20034;SDS011;10178;48.034;9.800;2024-01-15T04:56:27;17.63;;;8.90;;
20034;SDS011;10178;48.034;9.800;2024-01-15T04:58:53;18.57;;;7.27;;
20034;SDS011;10178;48.034;9.800;2024-01-15T05:01:18;18.83;;;8.23;;
20034;SDS011;10178;48.034;9.800;2024-01-15T05:03:44;16.40;;;7.53;;
20034;SDS011;10178;48.034;9.800;2024-01-15T05:06:09;17.33;;;8.33;;
20034;SDS011;10178;48.034;9.800;2024-01-15T05:08:35;16.03;;;7.37;;
20034;SDS011;10178;48.034;9.800;2024-01-15T05:11:01;18.83;;;7.83;;
20034;SDS011;10178;48.034;9.800;2024-01-15T05:13:27;15.30;;;7.80;;
20034;SDS011;10178;48.034;9.800;2024-01-15T05:15:53;17.93;;;8.30;;
20034;SDS011;10178;48.034;9.800;2024-01-15T05:18:18;14.10;;;7.33;;
20034;SDS011;10178;48.034;9.800;2024-01-15T05:20:44;16.57;;;7.33;;
20034;SDS011;10178;48.034;9.800;2024-01-15T05:23:10;15.90;;;7.80;;
20034;SDS011;10178;48.034;9.800;2024-01-15T05:25:35;14.83;;;7.63;;
20034;SDS011;10178;48.034;9.800;2024-01-15T05:28:01;12.40;;;6.20;;
20034;SDS011;10178;48.034;9.800;2024-01-15T05:30:27;13.97;;;7.40;;
20034;SDS011;10178;48.034;9.800;2024-01-15T05:32:53;14.30;;;7.37;;
20034;SDS011;10178;48.034;9.800;2024-01-15T05:35:19;18.27;;;8.20;;
20034;SDS011;10178;48.034;9.800;2024-01-15T05:37:45;14.23;;;7.40;;
20034;SDS011;10178;48.034;9.800;2024-01-15T05:40:11;13.77;;;6.93;;
20034;SDS011;10178;48.034;9.800;2024-01-15T05:42:38;15.13;;;7.77;;
20034;SDS011;10178;48.034;9.800;2024-01-15T05:45:04;12.73;;;7.27;;
20034;SDS011;10178;48.034;9.800;2024-01-15T05:47:31;12.63;;;6.97;;
20034;SDS011;10178;48.034;9.800;2024-01-15T05:49:57;14.60;;;7.23;;
20034;SDS011;10178;48.034;9.800;2024-01-15T05:52:23;11.73;;;6.73;;
20034;SDS011;10178;48.034;9.800;2024-01-15T05:54:49;13.17;;;7.50;;
20034;SDS011;10178;48.034;9.800;2024-01-15T05:57:15;14.47;;;7.17;;
20034;SDS011;10178;48.034;9.800;2024-01-15T05:59:40;14.17;;;6.77;;
20034;SDS011;10178;48.034;9.800;2024-01-15T06:02:07;18.97;;;8.03;;
20034;SDS011;10178;48.034;9.800;2024-01-15T06:04:33;15.13;;;7.00;;
20034;SDS011;10178;48.034;9.800;2024-01-15T06:06:58;13.57;;;7.20;;
20034;SDS011;10178;48.034;9.800;2024-01-15T06:09:24;12.33;;;6.53;;
20034;SDS011;10178;48.034;9.800;2024-01-15T06:11:50;12.83;;;6.43;;
20034;SDS011;10178;48.034;9.800;2024-01-15T06:14:15;14.93;;;7.17;;
20034;SDS011;10178;48.034;9.800;2024-01-15T06:16:41;11.07;;;6.13;;
20034;SDS011;10178;48.034;9.800;2024-01-15T06:19:06;13.50;;;6.60;;
20034;SDS011;10178;48.034;9.800;2024-01-15T06:21:32;11.70;;;6.30;;
20034;SDS011;10178;48.034;9.800;2024-01-15T06:23:57;13.30;;;6.57;;
20034;SDS011;10178;48.034;9.800;2024-01-15T06:26:23;13.17;;;6.60;;
20034;SDS011;10178;48.034;9.800;2024-01-15T06:28:49;11.70;;;6.40;;
20034;SDS011;10178;48.034;9.800;2024-01-15T06:31:15;12.27;;;6.53;;
20034;SDS011;10178;48.034;9.800;2024-01-15T06:33:41;14.03;;;5.80;;
20034;SDS011;10178;48.034;9.800;2024-01-15T06:36:07;10.93;;;6.23;;
20034;SDS011;10178;48.034;9.800;2024-01-15T06:38:32;12.10;;;6.50;;
20034;SDS011;10178;48.034;9.800;2024-01-15T06:40:58;15.23;;;6.93;;
20034;SDS011;10178;48.034;9.800;2024-01-15T06:43:24;11.67;;;5.80;;
20034;SDS011;10178;48.034;9.800;2024-01-15T06:45:49;11.83;;;6.33;;
20034;SDS011;10178;48.034;9.800;2024-01-15T06:48:15;11.13;;;5.80;;
20034;SDS011;10178;48.034;9.800;2024-01-15T06:50:42;12.00;;;5.90;;
20034;SDS011;10178;48.034;9.800;2024-01-15T06:53:08;9.97;;;6.17;;
20034;SDS011;10178;48.034;9.800;2024-01-15T06:55:33;12.87;;;6.03;;
20034;SDS011;10178;48.034;9.800;2024-01-15T06:57:59;10.60;;;5.33;;
20034;SDS011;10178;48.034;9.800;2024-01-15T07:00:25;9.77;;;5.43;;
20034;SDS011;10178;48.034;9.800;2024-01-15T07:02:52;9.73;;;5.70;;
20034;SDS011;10178;48.034;9.800;2024-01-15T07:05:18;11.50;;;5.57;;
20034;SDS011;10178;48.034;9.800;2024-01-15T07:07:45;11.93;;;6.00;;
20034;SDS011;10178;48.034;9.800;2024-01-15T07:10:11;11.53;;;5.43;;
20034;SDS011;10178;48.034;9.800;2024-01-15T07:12:36;11.50;;;5.97;;
20034;SDS011;10178;48.034;9.800;2024-01-15T07:15:02;8.67;;;4.70;;
20034;SDS011;10178;48.034;9.800;2024-01-15T07:17:29;8.67;;;5.40;;
20034;SDS011;10178;48.034;9.800;2024-01-15T07:19:56;9.93;;;5.00;;
20034;SDS011;10178;48.034;9.800;2024-01-15T07:22:21;10.20;;;4.77;;
20034;SDS011;10178;48.034;9.800;2024-01-15T07:24:47;9.53;;;4.90;;
20034;SDS011;10178;48.034;9.800;2024-01-15T07:27:12;8.70;;;4.73;;
20034;SDS011;10178;48.034;9.800;2024-01-15T07:29:38;11.03;;;5.73;;
20034;SDS011;10178;48.034;9.800;2024-01-15T07:32:04;9.77;;;5.23;;
20034;SDS011;10178;48.034;9.800;2024-01-15T07:34:30;9.47;;;4.80;;
20034;SDS011;10178;48.034;9.800;2024-01-15T07:36:56;9.17;;;5.03;;
20034;SDS011;10178;48.034;9.800;2024-01-15T07:39:22;10.23;;;5.20;;
20034;SDS011;10178;48.034;9.800;2024-01-15T07:41:49;8.63;;;4.63;;
20034;SDS011;10178;48.034;9.800;2024-01-15T07:44:15;10.97;;;5.00;;
20034;SDS011;10178;48.034;9.800;2024-01-15T07:46:44;8.20;;;4.60;;
20034;SDS011;10178;48.034;9.800;2024-01-15T07:49:10;8.93;;;4.37;;
20034;SDS011;10178;48.034;9.800;2024-01-15T07:51:36;9.47;;;5.23;;
20034;SDS011;10178;48.034;9.800;2024-01-15T07:54:02;7.00;;;4.17;;
20034;SDS011;10178;48.034;9.800;2024-01-15T07:56:28;7.13;;;4.27;;
20034;SDS011;10178;48.034;9.800;2024-01-15T07:58:56;7.40;;;4.43;;
20034;SDS011;10178;48.034;9.800;2024-01-15T08:01:22;8.73;;;4.87;;
20034;SDS011;10178;48.034;9.800;2024-01-15T08:03:48;8.30;;;4.40;;
20034;SDS011;10178;48.034;9.800;2024-01-15T08:06:13;5.93;;;4.10;;
20034;SDS011;10178;48.034;9.800;2024-01-15T08:08:39;7.57;;;4.20;;
20034;SDS011;10178;48.034;9.800;2024-01-15T08:11:05;7.30;;;4.17;;
20034;SDS011;10178;48.034;9.800;2024-01-15T08:13:31;8.57;;;3.83;;
20034;SDS011;10178;48.034;9.800;2024-01-15T08:15:56;9.37;;;3.80;;
20034;SDS011;10178;48.034;9.800;2024-01-15T08:18:22;8.10;;;4.30;;
20034;SDS011;10178;48.034;9.800;2024-01-15T08:20:47;9.30;;;4.23;;
20034;SDS011;10178;48.034;9.800;2024-01-15T08:23:13;9.40;;;4.90;;
20034;SDS011;10178;48.034;9.800;2024-01-15T08:25:38;7.53;;;4.43;;
20034;SDS011;10178;48.034;9.800;2024-01-15T08:28:04;8.10;;;4.37;;
20034;SDS011;10178;48.034;9.800;2024-01-15T08:30:30;10.47;;;4.40;;
20034;SDS011;10178;48.034;9.800;2024-01-15T08:32:56;8.67;;;4.50;;
20034;SDS011;10178;48.034;9.800;2024-01-15T08:35:22;8.47;;;4.60;;
20034;SDS011;10178;48.034;9.800;2024-01-15T08:37:48;8.90;;;4.60;;
20034;SDS011;10178;48.034;9.800;2024-01-15T08:40:15;6.33;;;4.00;;
20034;SDS011;10178;48.034;9.800;2024-01-15T08:42:41;7.20;;;4.10;;
20034;SDS011;10178;48.034;9.800;2024-01-15T08:45:07;8.10;;;4.60;;
20034;SDS011;10178;48.034;9.800;2024-01-15T08:47:33;9.50;;;4.93;;
20034;SDS011;10178;48.034;9.800;2024-01-15T08:49:59;10.90;;;4.90;;
20034;SDS011;10178;48.034;9.800;2024-01-15T08:52:25;10.33;;;5.50;;
20034;SDS011;10178;48.034;9.800;2024-01-15T08:54:51;8.67;;;4.37;;
20034;SDS011;10178;48.034;9.800;2024-01-15T08:57:17;9.30;;;4.40;;
20034;SDS011;10178;48.034;9.800;2024-01-15T08:59:42;9.03;;;4.70;;
20034;SDS011;10178;48.034;9.800;2024-01-15T09:02:08;7.80;;;4.53;;
20034;SDS011;10178;48.034;9.800;2024-01-15T09:04:34;7.33;;;3.80;;
20034;SDS011;10178;48.034;9.800;2024-01-15T09:07:00;10.27;;;5.00;;
20034;SDS011;10178;48.034;9.800;2024-01-15T09:09:26;8.23;;;4.50;;
20034;SDS011;10178;48.034;9.800;2024-01-15T09:11:52;7.13;;;4.40;;
20034;SDS011;10178;48.034;9.800;2024-01-15T09:14:18;7.40;;;4.13;;
20034;SDS011;10178;48.034;9.800;2024-01-15T09:16:44;7.20;;;4.37;;
20034;SDS011;10178;48.034;9.800;2024-01-15T09:19:10;8.43;;;4.93;;
20034;SDS011;10178;48.034;9.800;2024-01-15T09:21:37;9.90;;;5.30;;
20034;SDS011;10178;48.034;9.800;2024-01-15T09:24:03;9.47;;;5.00;;
20034;SDS011;10178;48.034;9.800;2024-01-15T09:26:29;8.97;;;4.60;;
20034;SDS011;10178;48.034;9.800;2024-01-15T09:28:55;10.93;;;4.73;;
20034;SDS011;10178;48.034;9.800;2024-01-15T09:31:20;9.13;;;5.03;;
20034;SDS011;10178;48.034;9.800;2024-01-15T09:33:46;9.00;;;5.20;;
20034;SDS011;10178;48.034;9.800;2024-01-15T09:36:12;13.17;;;5.47;;
20034;SDS011;10178;48.034;9.800;2024-01-15T09:38:39;11.90;;;5.40;;
20034;SDS011;10178;48.034;9.800;2024-01-15T09:41:06;12.77;;;5.50;;
20034;SDS011;10178;48.034;9.800;2024-01-15T09:43:32;10.80;;;4.73;;
20034;SDS011;10178;48.034;9.800;2024-01-15T09:45:58;10.47;;;5.50;;
20034;SDS011;10178;48.034;9.800;2024-01-15T09:48:23;11.20;;;5.60;;
20034;SDS011;10178;48.034;9.800;2024-01-15T09:50:50;8.10;;;4.83;;
20034;SDS011;10178;48.034;9.800;2024-01-15T09:53:15;12.57;;;5.33;;
20034;SDS011;10178;48.034;9.800;2024-01-15T09:55:41;13.03;;;5.10;;
20034;SDS011;10178;48.034;9.800;2024-01-15T09:58:07;8.07;;;4.70;;
20034;SDS011;10178;48.034;9.800;2024-01-15T10:00:33;9.50;;;5.07;;
20034;SDS011;10178;48.034;9.800;2024-01-15T10:03:03;8.43;;;4.40;;
20034;SDS011;10178;48.034;9.800;2024-01-15T10:05:31;11.07;;;5.70;;
20034;SDS011;10178;48.034;9.800;2024-01-15T10:07:57;9.20;;;4.90;;
20034;SDS011;10178;48.034;9.800;2024-01-15T10:10:25;9.47;;;4.90;;
20034;SDS011;10178;48.034;9.800;2024-01-15T10:12:51;10.77;;;4.83;;
20034;SDS011;10178;48.034;9.800;2024-01-15T10:15:17;9.23;;;5.27;;
20034;SDS011;10178;48.034;9.800;2024-01-15T10:17:43;6.50;;;4.03;;
20034;SDS011;10178;48.034;9.800;2024-01-15T10:20:12;10.23;;;5.10;;
20034;SDS011;10178;48.034;9.800;2024-01-15T10:22:41;6.17;;;4.03;;
20034;SDS011;10178;48.034;9.800;2024-01-15T10:25:11;10.83;;;4.70;;
20034;SDS011;10178;48.034;9.800;2024-01-15T10:27:37;8.93;;;4.67;;
20034;SDS011;10178;48.034;9.800;2024-01-15T10:30:03;10.70;;;5.43;;
20034;SDS011;10178;48.034;9.800;2024-01-15T10:32:31;12.37;;;4.83;;
20034;SDS011;10178;48.034;9.800;2024-01-15T10:34:56;8.40;;;4.30;;
20034;SDS011;10178;48.034;9.800;2024-01-15T10:37:23;11.40;;;4.90;;
20034;SDS011;10178;48.034;9.800;2024-01-15T10:39:49;8.67;;;4.80;;
20034;SDS011;10178;48.034;9.800;2024-01-15T10:42:15;10.47;;;5.27;;
20034;SDS011;10178;48.034;9.800;2024-01-15T10:44:43;12.43;;;5.30;;
20034;SDS011;10178;48.034;9.800;2024-01-15T10:47:12;8.33;;;5.23;;
20034;SDS011;10178;48.034;9.800;2024-01-15T10:49:38;9.17;;;4.73;;
20034;SDS011;10178;48.034;9.800;2024-01-15T10:52:04;10.20;;;5.17;;
20034;SDS011;10178;48.034;9.800;2024-01-15T10:54:31;9.73;;;4.97;;
20034;SDS011;10178;48.034;9.800;2024-01-15T10:56:58;10.93;;;5.17;;
20034;SDS011;10178;48.034;9.800;2024-01-15T10:59:24;8.37;;;4.10;;
20034;SDS011;10178;48.034;9.800;2024-01-15T11:01:50;8.27;;;4.23;;
20034;SDS011;10178;48.034;9.800;2024-01-15T11:04:21;9.67;;;5.03;;
20034;SDS011;10178;48.034;9.800;2024-01-15T11:06:50;10.63;;;5.27;;
20034;SDS011;10178;48.034;9.800;2024-01-15T11:09:18;8.40;;;4.53;;
20034;SDS011;10178;48.034;9.800;2024-01-15T11:11:44;9.47;;;5.43;;
20034;SDS011;10178;48.034;9.800;2024-01-15T11:14:33;8.40;;;5.00;;
20034;SDS011;10178;48.034;9.800;2024-01-15T11:17:11;9.83;;;4.83;;
20034;SDS011;10178;48.034;9.800;2024-01-15T11:24:54;9.37;;;5.63;;
20034;SDS011;10178;48.034;9.800;2024-01-15T11:27:39;12.20;;;5.97;;
20034;SDS011;10178;48.034;9.800;2024-01-15T11:30:06;12.17;;;5.40;;
20034;SDS011;10178;48.034;9.800;2024-01-15T11:32:37;12.80;;;6.20;;
20034;SDS011;10178;48.034;9.800;2024-01-15T11:35:06;13.57;;;5.20;;
20034;SDS011;10178;48.034;9.800;2024-01-15T11:40:23;11.70;;;5.23;;
20034;SDS011;10178;48.034;9.800;2024-01-15T11:43:03;11.53;;;5.57;;
20034;SDS011;10178;48.034;9.800;2024-01-15T11:45:32;10.73;;;5.63;;
20034;SDS011;10178;48.034;9.800;2024-01-15T11:48:12;12.07;;;5.87;;
20034;SDS011;10178;48.034;9.800;2024-01-15T11:50:39;12.77;;;6.30;;
20034;SDS011;10178;48.034;9.800;2024-01-15T11:53:09;11.83;;;5.70;;
20034;SDS011;10178;48.034;9.800;2024-01-15T11:55:59;16.90;;;6.60;;
20034;SDS011;10178;48.034;9.800;2024-01-15T11:58:27;14.97;;;6.30;;
20034;SDS011;10178;48.034;9.800;2024-01-15T12:00:53;11.27;;;5.67;;
20034;SDS011;10178;48.034;9.800;2024-01-15T12:03:23;14.70;;;7.13;;
20034;SDS011;10178;48.034;9.800;2024-01-15T12:05:49;14.17;;;7.30;;
20034;SDS011;10178;48.034;9.800;2024-01-15T12:08:20;12.40;;;6.27;;
20034;SDS011;10178;48.034;9.800;2024-01-15T12:10:47;13.63;;;7.07;;
20034;SDS011;10178;48.034;9.800;2024-01-15T12:13:13;14.33;;;7.50;;
20034;SDS011;10178;48.034;9.800;2024-01-15T12:15:40;16.87;;;7.23;;
20034;SDS011;10178;48.034;9.800;2024-01-15T12:18:11;13.10;;;6.97;;
20034;SDS011;10178;48.034;9.800;2024-01-15T12:20:39;13.50;;;7.03;;
20034;SDS011;10178;48.034;9.800;2024-01-15T12:23:05;12.53;;;6.57;;
20034;SDS011;10178;48.034;9.800;2024-01-15T12:25:31;15.27;;;7.33;;
20034;SDS011;10178;48.034;9.800;2024-01-15T12:27:58;17.07;;;7.80;;
20034;SDS011;10178;48.034;9.800;2024-01-15T12:30:25;13.33;;;6.47;;
20034;SDS011;10178;48.034;9.800;2024-01-15T12:32:51;13.97;;;6.60;;
20034;SDS011;10178;48.034;9.800;2024-01-15T12:35:17;13.43;;;6.17;;
20034;SDS011;10178;48.034;9.800;2024-01-15T12:37:43;12.83;;;6.93;;
20034;SDS011;10178;48.034;9.800;2024-01-15T12:40:11;15.03;;;6.90;;
20034;SDS011;10178;48.034;9.800;2024-01-15T12:42:39;14.60;;;7.07;;
20034;SDS011;10178;48.034;9.800;2024-01-15T12:45:05;17.43;;;7.30;;
20034;SDS011;10178;48.034;9.800;2024-01-15T12:47:31;15.17;;;7.63;;
20034;SDS011;10178;48.034;9.800;2024-01-15T12:49:57;19.37;;;8.30;;
20034;SDS011;10178;48.034;9.800;2024-01-15T12:52:26;13.43;;;6.60;;
20034;SDS011;10178;48.034;9.800;2024-01-15T12:54:52;14.33;;;7.17;;
20034;SDS011;10178;48.034;9.800;2024-01-15T12:57:18;20.97;;;8.53;;
20034;SDS011;10178;48.034;9.800;2024-01-15T12:59:44;17.13;;;7.73;;
20034;SDS011;10178;48.034;9.800;2024-01-15T13:02:10;13.07;;;6.93;;
20034;SDS011;10178;48.034;9.800;2024-01-15T13:04:39;14.57;;;7.30;;
20034;SDS011;10178;48.034;9.800;2024-01-15T13:07:05;11.80;;;6.20;;
20034;SDS011;10178;48.034;9.800;2024-01-15T13:09:32;13.70;;;6.60;;
20034;SDS011;10178;48.034;9.800;2024-01-15T13:11:58;12.40;;;6.70;;
20034;SDS011;10178;48.034;9.800;2024-01-15T13:14:24;13.63;;;6.47;;
20034;SDS011;10178;48.034;9.800;2024-01-15T13:16:49;13.70;;;6.47;;
20034;SDS011;10178;48.034;9.800;2024-01-15T13:19:16;9.23;;;5.67;;
20034;SDS011;10178;48.034;9.800;2024-01-15T13:21:42;12.00;;;5.80;;
20034;SDS011;10178;48.034;9.800;2024-01-15T13:24:08;12.80;;;6.13;;
20034;SDS011;10178;48.034;9.800;2024-01-15T13:26:34;10.20;;;5.37;;
20034;SDS011;10178;48.034;9.800;2024-01-15T13:29:01;13.93;;;6.00;;
20034;SDS011;10178;48.034;9.800;2024-01-15T13:31:28;12.47;;;5.70;;
20034;SDS011;10178;48.034;9.800;2024-01-15T13:33:55;10.97;;;5.80;;
20034;SDS011;10178;48.034;9.800;2024-01-15T13:36:21;10.40;;;5.20;;
20034;SDS011;10178;48.034;9.800;2024-01-15T13:38:48;10.83;;;5.53;;
20034;SDS011;10178;48.034;9.800;2024-01-15T13:41:18;10.60;;;5.50;;
20034;SDS011;10178;48.034;9.800;2024-01-15T13:43:52;10.37;;;5.50;;
20034;SDS011;10178;48.034;9.800;2024-01-15T13:46:18;12.33;;;6.03;;
20034;SDS011;10178;48.034;9.800;2024-01-15T13:48:45;11.33;;;6.03;;
20034;SDS011;10178;48.034;9.800;2024-01-15T13:51:10;8.60;;;5.47;;
20034;SDS011;10178;48.034;9.800;2024-01-15T13:53:37;10.30;;;5.20;;
20034;SDS011;10178;48.034;9.800;2024-01-15T13:56:03;12.03;;;6.07;;
20034;SDS011;10178;48.034;9.800;2024-01-15T13:58:30;11.70;;;5.70;;
20034;SDS011;10178;48.034;9.800;2024-01-15T14:00:56;12.53;;;5.93;;
20034;SDS011;10178;48.034;9.800;2024-01-15T14:03:21;11.63;;;5.53;;
20034;SDS011;10178;48.034;9.800;2024-01-15T14:05:47;12.80;;;6.23;;
20034;SDS011;10178;48.034;9.800;2024-01-15T14:08:13;17.43;;;6.43;;
20034;SDS011;10178;48.034;9.800;2024-01-15T14:10:39;12.63;;;5.57;;
20034;SDS011;10178;48.034;9.800;2024-01-15T14:13:04;9.83;;;5.73;;
20034;SDS011;10178;48.034;9.800;2024-01-15T14:15:30;9.97;;;5.30;;
20034;SDS011;10178;48.034;9.800;2024-01-15T14:17:56;8.73;;;5.23;;
20034;SDS011;10178;48.034;9.800;2024-01-15T14:20:22;9.83;;;5.20;;
20034;SDS011;10178;48.034;9.800;2024-01-15T14:22:48;10.50;;;5.50;;
20034;SDS011;10178;48.034;9.800;2024-01-15T14:25:14;9.77;;;5.23;;
20034;SDS011;10178;48.034;9.800;2024-01-15T14:27:39;11.80;;;5.63;;
20034;SDS011;10178;48.034;9.800;2024-01-15T14:30:05;12.97;;;5.33;;
20034;SDS011;10178;48.034;9.800;2024-01-15T14:32:33;9.17;;;4.87;;
20034;SDS011;10178;48.034;9.800;2024-01-15T14:34:59;12.20;;;5.50;;
20034;SDS011;10178;48.034;9.800;2024-01-15T14:37:25;9.77;;;5.00;;
20034;SDS011;10178;48.034;9.800;2024-01-15T14:39:51;9.07;;;5.53;;